Airfield :
LOGIN :

Register | Disclaimer

   EN    FR    IT 

 










Legend :    VFR   Marginal VFR   IFR   Intensive IFR   Very Intensive IFR
Visi :
Ceiling :
>= 8 km
>= 3000ft
5 to 8 km
1000 to 3000 ft
1500m to 5 km
500 to 1000 ft
800 to 1500m
200 to 500 ft
< 800m
< 200 ft
Symbols :   Thunderstorms  Fog  Heavy snow  Heavy precipitations  Wind > 20 kt
SIGMETs :     Misc.  Thunderstorms  Icing  Turbulence  Mountain Waves  Volcanic Ashes






- Airport Elevation : 870 ft
- IATA code : ETZ


LFJL - Metz Nancy Lorraine

CURRENT METAR :
  • 220400Z AUTO 01003KT 5000 BR NSC M04/M04 Q1034 NOSIG

EXPIRED METARs :
  • 220330Z AUTO 03003KT 5000 BR NSC M05/M05 Q1034 NOSIG
  • 220300Z AUTO 34003KT 5000 BR NSC M03/M04 Q1034 NOSIG
  • 220230Z AUTO 00000KT 6000 NSC M04/M04 Q1034 NOSIG
  • 220200Z AUTO VRB02KT 6000 NSC M04/M06 Q1035 NOSIG
  • 220130Z AUTO VRB02KT 8000 NSC M02/M03 Q1035 NOSIG

TAF AMD TAF LFJL
Valid from the 22 at 03:00 until the 23 at 00:00 UTC


220317Z 2203/2224 04005KT CAVOK
TEMPO 2203/2208 3000 BR



MET'MAP, your aeronautical weather chart ! - Copyright ORBIFLY December 2007 - Disclaimer

ORBIFLY MET'MAP TEAM :

Programming & Development : Alexandra Zaïnal
Concept & original design : Baudouin d'Aumeries
Assistance for programming : Marc-Olivier Méhu
Technical & hardware support : Manuel Goepfert

Contact : metmap@orbifly.com




SOURCES & CREDITS :

   NOAA